Time;durP1;ratioP1;P1;durP2;ratioP2;P2;SDS_P1;SDS_P2;PMS_P1;PMS_P2;Temp;Humidity;BMP_temperature;BMP_pressure;BME280_temperature;BME280_humidity;BME280_pressure;Samples;Min_cycle;Max_cycle;Signal;HPM_P1;HPM_P2
2022/09/09 00:01:38;;;;;;;;;;;16.70;78.50;;;;;;5118832;27;20276;-71
2022/09/09 00:04:14;;;;;;;;;;;16.80;78.60;;;;;;5117460;27;20403;-71
2022/09/09 00:06:50;;;;;;;;;;;16.70;78.80;;;;;;5115822;27;19973;-71
2022/09/09 00:09:18;;;;;;;;;;;16.70;78.90;;;;;;5122270;27;19919;-71
2022/09/09 00:11:50;;;;;;;;;;;16.80;78.90;;;;;;5124421;27;20233;-71
2022/09/09 00:14:22;;;;;;;;;;;16.80;78.90;;;;;;5123769;27;19923;-71
2022/09/09 00:16:52;;;;;;;;;;;16.90;79.00;;;;;;5129534;27;19927;-71
2022/09/09 00:19:22;;;;;;;;;;;16.80;79.10;;;;;;5121618;27;19919;-71
2022/09/09 00:21:51;;;;;;;;;;;16.80;79.10;;;;;;5115776;27;19920;-70
2022/09/09 00:24:20;;;;;;;;;;;16.80;79.10;;;;;;5114237;27;19962;-71
2022/09/09 00:26:52;;;;;;;;;;;16.90;79.10;;;;;;5121911;27;19927;-70
2022/09/09 00:29:26;;;;;;;;;;;16.90;79.20;;;;;;5127067;27;19955;-70
2022/09/09 00:31:56;;;;;;;;;;;16.90;79.10;;;;;;5122243;27;20389;-70
2022/09/09 00:34:23;;;;;;;;;;;16.90;79.10;;;;;;5116371;27;19942;-70
2022/09/09 00:36:52;;;;;;;;;;;16.90;79.10;;;;;;5124111;27;20007;-71
2022/09/09 00:39:24;;;;;;;;;;;16.90;79.20;;;;;;5122949;27;20394;-71
2022/09/09 00:42:09;;;;;;;;;;;16.90;79.20;;;;;;5128281;27;19923;-70
2022/09/09 00:44:38;;;;;;;;;;;16.80;79.20;;;;;;5124904;27;19934;-72
2022/09/09 00:47:13;;;;;;;;;;;16.80;79.30;;;;;;5122806;27;20359;-71
2022/09/09 00:49:46;;;;;;;;;;;16.80;79.40;;;;;;5118451;28;19923;-71
2022/09/09 00:52:19;;;;;;;;;;;16.80;79.40;;;;;;5127502;27;19919;-71
2022/09/09 00:54:50;;;;;;;;;;;16.70;79.50;;;;;;5123801;27;19920;-72
2022/09/09 00:57:27;;;;;;;;;;;16.80;79.50;;;;;;5127024;27;19964;-71
2022/09/09 00:59:58;;;;;;;;;;;16.80;79.50;;;;;;5123638;27;19919;-71
2022/09/09 01:02:30;;;;;;;;;;;16.70;79.60;;;;;;5120429;27;20297;-71
2022/09/09 01:05:10;;;;;;;;;;;16.70;79.70;;;;;;5133104;27;20392;-71
2022/09/09 01:07:38;;;;;;;;;;;16.70;79.90;;;;;;5125413;27;19919;-70
2022/09/09 01:10:07;;;;;;;;;;;16.70;79.80;;;;;;5132248;27;20273;-71
2022/09/09 01:12:40;;;;;;;;;;;16.80;79.90;;;;;;5130483;27;19950;-71
2022/09/09 01:15:11;;;;;;;;;;;16.80;79.90;;;;;;5128284;27;19941;-71
2022/09/09 01:17:51;;;;;;;;;;;16.70;79.90;;;;;;5125131;27;20361;-71
2022/09/09 01:20:21;;;;;;;;;;;16.80;79.80;;;;;;5128352;27;20274;-71
2022/09/09 01:23:07;;;;;;;;;;;16.70;79.90;;;;;;5122875;27;19920;-70
2022/09/09 01:25:55;;;;;;;;;;;16.70;80.00;;;;;;5124381;27;19934;-71
2022/09/09 01:28:28;;;;;;;;;;;16.60;80.10;;;;;;5132068;27;20014;-70
2022/09/09 01:31:02;;;;;;;;;;;16.70;80.00;;;;;;5126545;27;19927;-71
2022/09/09 01:33:35;;;;;;;;;;;16.70;80.00;;;;;;5132343;27;20161;-71
2022/09/09 01:36:06;;;;;;;;;;;16.60;79.90;;;;;;5127470;27;20415;-71
2022/09/09 01:38:38;;;;;;;;;;;16.60;80.00;;;;;;5130622;27;20288;-70
2022/09/09 01:41:06;;;;;;;;;;;16.60;80.10;;;;;;5129241;27;20223;-71
2022/09/09 01:43:44;;;;;;;;;;;16.60;80.00;;;;;;5129833;27;20394;-71
2022/09/09 01:46:11;;;;;;;;;;;16.60;80.10;;;;;;5127707;27;19923;-71
2022/09/09 01:48:40;;;;;;;;;;;16.60;80.10;;;;;;5125871;27;20261;-71
2022/09/09 01:51:10;;;;;;;;;;;16.50;80.10;;;;;;5126345;27;20018;-70
2022/09/09 01:53:37;;;;;;;;;;;16.50;80.30;;;;;;5127182;27;20338;-70
2022/09/09 01:56:13;;;;;;;;;;;16.50;80.40;;;;;;5127382;27;19923;-71
2022/09/09 01:58:48;;;;;;;;;;;16.60;80.40;;;;;;5125881;27;19919;-71
2022/09/09 02:01:24;;;;;;;;;;;16.50;80.40;;;;;;5116320;27;20426;-70
2022/09/09 02:03:53;;;;;;;;;;;16.60;80.40;;;;;;5122065;27;19955;-70
2022/09/09 02:06:27;;;;;;;;;;;16.50;80.30;;;;;;5122505;27;20350;-71
2022/09/09 02:09:05;;;;;;;;;;;16.50;80.30;;;;;;5121254;27;19954;-72
2022/09/09 02:11:34;;;;;;;;;;;16.40;80.30;;;;;;5121176;27;20004;-71
2022/09/09 02:14:14;;;;;;;;;;;16.40;80.20;;;;;;5114779;27;19954;-71
2022/09/09 02:16:48;;;;;;;;;;;16.40;80.10;;;;;;5126250;27;19923;-70
2022/09/09 02:19:17;;;;;;;;;;;16.40;80.10;;;;;;5123162;27;19994;-71
2022/09/09 02:22:04;;;;;;;;;;;16.30;80.20;;;;;;5122652;27;19927;-72
2022/09/09 02:24:34;;;;;;;;;;;16.30;80.20;;;;;;5120058;27;20424;-70
2022/09/09 02:27:19;;;;;;;;;;;16.30;80.20;;;;;;5123272;27;19924;-72
2022/09/09 02:29:51;;;;;;;;;;;16.30;80.20;;;;;;5129453;27;19924;-71
2022/09/09 02:32:23;;;;;;;;;;;16.20;80.30;;;;;;5142124;27;19991;-71
2022/09/09 02:34:52;;;;;;;;;;;16.20;80.30;;;;;;5123967;27;19983;-71
2022/09/09 02:37:23;;;;;;;;;;;16.20;80.30;;;;;;5125947;27;19965;-72
2022/09/09 02:39:56;;;;;;;;;;;16.20;80.30;;;;;;5126704;27;20159;-70
2022/09/09 02:42:24;;;;;;;;;;;16.20;80.30;;;;;;5121484;27;20018;-69
2022/09/09 02:44:55;;;;;;;;;;;16.10;80.30;;;;;;5123144;27;19924;-71
2022/09/09 02:47:28;;;;;;;;;;;16.10;80.30;;;;;;5120370;27;19923;-71
2022/09/09 02:50:05;;;;;;;;;;;16.10;80.30;;;;;;5124456;27;20296;-70
2022/09/09 02:52:36;;;;;;;;;;;16.10;80.40;;;;;;5121753;27;19927;-71
2022/09/09 02:55:07;;;;;;;;;;;16.10;80.60;;;;;;5131383;27;19927;-70
2022/09/09 02:57:36;;;;;;;;;;;16.00;80.60;;;;;;5127947;27;19966;-72
2022/09/09 03:00:07;;;;;;;;;;;16.00;80.80;;;;;;5124573;27;20277;-70
2022/09/09 03:02:35;;;;;;;;;;;16.00;80.80;;;;;;5123959;27;19932;-71
2022/09/09 03:05:06;;;;;;;;;;;16.00;80.70;;;;;;5098770;27;19920;-70
2022/09/09 03:07:35;;;;;;;;;;;16.00;80.70;;;;;;5086597;28;19928;-70
2022/09/09 03:10:02;;;;;;;;;;;16.00;80.70;;;;;;5084677;28;20023;-72
2022/09/09 03:12:31;;;;;;;;;;;16.00;80.60;;;;;;5099965;28;19920;-70
2022/09/09 03:15:02;;;;;;;;;;;15.90;80.60;;;;;;5085585;28;19930;-70
2022/09/09 03:17:34;;;;;;;;;;;15.90;80.70;;;;;;5100777;28;20037;-70
2022/09/09 03:20:01;;;;;;;;;;;15.90;80.80;;;;;;5082027;28;20021;-70
2022/09/09 03:22:30;;;;;;;;;;;16.00;80.80;;;;;;5076732;28;20358;-69
2022/09/09 03:25:01;;;;;;;;;;;16.00;80.70;;;;;;5089109;28;21065;-71
2022/09/09 03:27:28;;;;;;;;;;;16.00;80.80;;;;;;5079542;28;20011;-71
2022/09/09 03:29:56;;;;;;;;;;;15.90;81.00;;;;;;5081627;28;19920;-71
2022/09/09 03:32:25;;;;;;;;;;;15.90;81.20;;;;;;5088225;28;19960;-71
2022/09/09 03:34:58;;;;;;;;;;;16.00;81.20;;;;;;5087647;28;19924;-70
2022/09/09 03:37:25;;;;;;;;;;;16.00;81.20;;;;;;5078806;28;19928;-70
2022/09/09 03:39:55;;;;;;;;;;;16.00;81.30;;;;;;5087676;28;20396;-70
2022/09/09 03:42:24;;;;;;;;;;;16.00;81.20;;;;;;5085119;28;19919;-71
2022/09/09 03:44:57;;;;;;;;;;;16.00;81.30;;;;;;5071577;28;20312;-71
2022/09/09 03:47:25;;;;;;;;;;;16.10;81.30;;;;;;5085247;28;19938;-70
2022/09/09 03:50:09;;;;;;;;;;;16.00;81.30;;;;;;5084757;28;20014;-70
2022/09/09 03:52:38;;;;;;;;;;;16.10;81.30;;;;;;5080936;28;20381;-70
2022/09/09 03:55:08;;;;;;;;;;;16.00;81.30;;;;;;5084304;28;19942;-71
2022/09/09 03:57:36;;;;;;;;;;;16.00;81.50;;;;;;5085439;28;19930;-71
2022/09/09 04:00:06;;;;;;;;;;;16.00;81.40;;;;;;5084227;28;19971;-71
2022/09/09 04:02:43;;;;;;;;;;;16.00;81.40;;;;;;5087627;28;19947;-71
2022/09/09 04:05:14;;;;;;;;;;;16.00;81.50;;;;;;5106637;27;20407;-72
2022/09/09 04:07:46;;;;;;;;;;;16.00;81.30;;;;;;5128111;27;20373;-72
2022/09/09 04:10:16;;;;;;;;;;;16.00;81.30;;;;;;5126047;27;19977;-71
2022/09/09 04:12:43;;;;;;;;;;;16.00;81.40;;;;;;5124131;27;19919;-71
2022/09/09 04:15:11;;;;;;;;;;;15.90;81.60;;;;;;5123554;27;20374;-70
2022/09/09 04:17:44;;;;;;;;;;;15.90;81.70;;;;;;5130960;27;19995;-72
2022/09/09 04:20:12;;;;;;;;;;;15.90;81.50;;;;;;5123360;27;20014;-72
2022/09/09 04:22:40;;;;;;;;;;;16.00;81.40;;;;;;5126908;27;19945;-70
2022/09/09 04:25:08;;;;;;;;;;;15.90;81.50;;;;;;5125995;27;20379;-70
2022/09/09 04:27:35;;;;;;;;;;;15.90;81.50;;;;;;5124903;27;19920;-70
2022/09/09 04:30:03;;;;;;;;;;;15.80;81.50;;;;;;5124829;27;19988;-70
2022/09/09 04:32:33;;;;;;;;;;;15.80;81.40;;;;;;5127372;27;19925;-71
2022/09/09 04:35:02;;;;;;;;;;;15.90;81.30;;;;;;5122690;27;19919;-70
2022/09/09 04:37:28;;;;;;;;;;;15.90;81.30;;;;;;5123382;27;19923;-69
2022/09/09 04:40:02;;;;;;;;;;;15.90;81.30;;;;;;5125144;27;19923;-69
2022/09/09 04:42:31;;;;;;;;;;;15.80;81.30;;;;;;5120599;27;20373;-72
2022/09/09 04:44:58;;;;;;;;;;;15.80;81.20;;;;;;5115085;28;19979;-71
2022/09/09 04:47:26;;;;;;;;;;;15.70;81.20;;;;;;5126231;27;20399;-71
2022/09/09 04:49:54;;;;;;;;;;;15.70;81.20;;;;;;5124778;27;20002;-72
2022/09/09 04:52:23;;;;;;;;;;;15.70;81.20;;;;;;5141004;27;20014;-70
2022/09/09 04:54:50;;;;;;;;;;;15.70;81.20;;;;;;5122619;27;19919;-71
2022/09/09 04:57:20;;;;;;;;;;;15.70;81.20;;;;;;5125612;27;19920;-70
2022/09/09 04:59:47;;;;;;;;;;;15.70;81.30;;;;;;5125797;27;19923;-70
2022/09/09 05:02:15;;;;;;;;;;;15.60;81.30;;;;;;5120023;27;19973;-71
2022/09/09 05:04:42;;;;;;;;;;;15.70;81.30;;;;;;5115875;27;20412;-71
2022/09/09 05:07:10;;;;;;;;;;;15.70;81.30;;;;;;5121484;27;20292;-71
2022/09/09 05:09:37;;;;;;;;;;;15.70;81.40;;;;;;5121991;27;19926;-71
2022/09/09 05:12:06;;;;;;;;;;;15.70;81.40;;;;;;5124633;27;19926;-71
2022/09/09 05:14:40;;;;;;;;;;;15.70;81.60;;;;;;5124175;27;19927;-71
2022/09/09 05:17:08;;;;;;;;;;;15.70;81.60;;;;;;5124232;27;19919;-72
2022/09/09 05:19:38;;;;;;;;;;;15.70;81.70;;;;;;5124132;27;19928;-70
2022/09/09 05:22:05;;;;;;;;;;;15.70;81.80;;;;;;5127472;27;19920;-70
2022/09/09 05:24:40;;;;;;;;;;;15.70;81.80;;;;;;5120135;27;20012;-70
2022/09/09 05:27:11;;;;;;;;;;;15.70;81.70;;;;;;5123367;27;19975;-69
2022/09/09 05:29:41;;;;;;;;;;;15.70;81.70;;;;;;5120972;27;20377;-69
2022/09/09 05:32:11;;;;;;;;;;;15.70;81.70;;;;;;5122892;27;19964;-71
2022/09/09 05:34:39;;;;;;;;;;;15.70;81.60;;;;;;5128048;27;19928;-72
2022/09/09 05:37:08;;;;;;;;;;;15.80;81.50;;;;;;5123010;27;20013;-72
2022/09/09 05:39:36;;;;;;;;;;;15.90;81.40;;;;;;5127906;27;19919;-71
2022/09/09 05:42:07;;;;;;;;;;;15.90;81.50;;;;;;5127253;27;19955;-71
2022/09/09 05:44:38;;;;;;;;;;;15.90;81.50;;;;;;5115157;27;19923;-70
2022/09/09 05:47:07;;;;;;;;;;;16.00;81.40;;;;;;5114466;27;20487;-71
2022/09/09 05:49:36;;;;;;;;;;;16.00;81.30;;;;;;5123853;27;20002;-70
2022/09/09 05:52:04;;;;;;;;;;;16.00;81.40;;;;;;5123523;27;19954;-71
2022/09/09 05:54:32;;;;;;;;;;;16.00;81.50;;;;;;5127819;27;19919;-71
2022/09/09 05:56:59;;;;;;;;;;;16.00;81.60;;;;;;5130623;27;19978;-70
2022/09/09 05:59:28;;;;;;;;;;;16.00;81.50;;;;;;5127482;27;20014;-71
2022/09/09 06:01:56;;;;;;;;;;;16.00;81.60;;;;;;5122080;27;19924;-71
2022/09/09 06:04:35;;;;;;;;;;;16.10;81.60;;;;;;5120197;27;19920;-70
2022/09/09 06:07:05;;;;;;;;;;;16.10;81.50;;;;;;5118152;27;19920;-72
2022/09/09 06:09:32;;;;;;;;;;;16.10;81.50;;;;;;5128055;27;19970;-70
2022/09/09 06:12:02;;;;;;;;;;;16.20;81.50;;;;;;5127633;27;20381;-70
2022/09/09 06:14:34;;;;;;;;;;;16.20;81.60;;;;;;5130304;27;19966;-70
2022/09/09 06:17:03;;;;;;;;;;;16.20;81.50;;;;;;5119981;27;19927;-72
2022/09/09 06:19:30;;;;;;;;;;;16.30;81.50;;;;;;5114197;27;19973;-70
2022/09/09 06:22:00;;;;;;;;;;;16.30;81.60;;;;;;5121901;27;19928;-70
2022/09/09 06:24:34;;;;;;;;;;;16.40;81.50;;;;;;5120275;27;19927;-70
2022/09/09 06:27:03;;;;;;;;;;;16.50;81.30;;;;;;5127740;27;20395;-71
2022/09/09 06:29:35;;;;;;;;;;;16.50;81.40;;;;;;5125826;27;19927;-71
2022/09/09 06:32:04;;;;;;;;;;;16.50;81.50;;;;;;5129258;27;19956;-71
2022/09/09 06:34:35;;;;;;;;;;;16.50;81.40;;;;;;5124190;27;19923;-70
2022/09/09 06:37:08;;;;;;;;;;;16.50;81.50;;;;;;5125496;27;19923;-72
2022/09/09 06:39:43;;;;;;;;;;;16.50;81.50;;;;;;5118477;27;20018;-71
2022/09/09 06:42:14;;;;;;;;;;;16.60;81.70;;;;;;5126184;27;20435;-70
2022/09/09 06:44:45;;;;;;;;;;;16.60;81.70;;;;;;5120899;27;19924;-70
2022/09/09 06:47:24;;;;;;;;;;;16.60;81.40;;;;;;5122139;27;19931;-71
2022/09/09 06:49:57;;;;;;;;;;;16.60;81.50;;;;;;5122416;27;19927;-70
2022/09/09 06:52:25;;;;;;;;;;;16.60;81.60;;;;;;5114364;27;20391;-71
2022/09/09 06:54:54;;;;;;;;;;;16.60;81.70;;;;;;5127349;27;19920;-71
2022/09/09 06:57:22;;;;;;;;;;;16.60;81.70;;;;;;5123720;27;19919;-71
2022/09/09 06:59:49;;;;;;;;;;;16.60;81.80;;;;;;5128696;27;19976;-72
2022/09/09 07:02:19;;;;;;;;;;;16.60;81.10;;;;;;5119478;27;19926;-71
2022/09/09 07:04:51;;;;;;;;;;;16.70;81.50;;;;;;5120306;27;20373;-69
2022/09/09 07:07:18;;;;;;;;;;;16.70;81.90;;;;;;5134615;27;19920;-71
2022/09/09 07:09:49;;;;;;;;;;;16.70;81.80;;;;;;5124816;27;19934;-71
2022/09/09 07:12:16;;;;;;;;;;;16.80;81.90;;;;;;5128267;27;19928;-71
2022/09/09 07:14:50;;;;;;;;;;;16.90;81.60;;;;;;5126991;27;19919;-71
2022/09/09 07:17:17;;;;;;;;;;;17.00;81.30;;;;;;5125841;27;19939;-70
2022/09/09 07:19:44;;;;;;;;;;;17.10;81.20;;;;;;5125850;27;20331;-70
2022/09/09 07:22:11;;;;;;;;;;;17.20;81.00;;;;;;5116627;27;19920;-72
2022/09/09 07:24:40;;;;;;;;;;;17.30;80.80;;;;;;5123202;27;19950;-71
2022/09/09 07:27:10;;;;;;;;;;;17.30;80.60;;;;;;5128341;27;20458;-71
2022/09/09 07:29:37;;;;;;;;;;;17.30;80.50;;;;;;5124539;27;20499;-71
2022/09/09 07:32:08;;;;;;;;;;;17.40;80.40;;;;;;5126264;27;19946;-70
2022/09/09 07:34:40;;;;;;;;;;;17.50;80.20;;;;;;5124164;27;19961;-71
2022/09/09 07:37:11;;;;;;;;;;;17.60;80.10;;;;;;5124349;27;19930;-71
2022/09/09 07:39:43;;;;;;;;;;;17.60;80.00;;;;;;5126682;27;19927;-70
2022/09/09 07:42:13;;;;;;;;;;;17.70;79.70;;;;;;5140460;27;20364;-71
2022/09/09 07:44:40;;;;;;;;;;;17.90;79.60;;;;;;5120057;27;20000;-70
2022/09/09 07:47:15;;;;;;;;;;;18.10;79.60;;;;;;5124032;27;19924;-71
2022/09/09 07:49:46;;;;;;;;;;;18.30;79.20;;;;;;5123344;27;20384;-71
2022/09/09 07:52:16;;;;;;;;;;;18.50;78.50;;;;;;5123501;27;19920;-70
2022/09/09 07:54:46;;;;;;;;;;;18.70;77.60;;;;;;5125086;27;19976;-70
2022/09/09 07:57:15;;;;;;;;;;;18.90;77.00;;;;;;5126209;27;19919;-70
2022/09/09 07:59:43;;;;;;;;;;;19.00;76.60;;;;;;5119216;27;19931;-69
2022/09/09 08:02:10;;;;;;;;;;;19.10;76.10;;;;;;5125437;27;19927;-70
2022/09/09 08:04:37;;;;;;;;;;;19.10;75.50;;;;;;5137308;27;19925;-69
2022/09/09 08:07:04;;;;;;;;;;;19.30;74.60;;;;;;5119789;27;19931;-70
2022/09/09 08:09:38;;;;;;;;;;;19.50;74.20;;;;;;5127103;27;19943;-71
2022/09/09 08:12:19;;;;;;;;;;;19.70;73.40;;;;;;5118539;27;19935;-72
2022/09/09 08:14:48;;;;;;;;;;;20.00;72.60;;;;;;5120170;27;19949;-70
2022/09/09 08:17:16;;;;;;;;;;;20.10;72.50;;;;;;5120726;27;19966;-70
2022/09/09 08:19:44;;;;;;;;;;;20.10;71.80;;;;;;5123877;27;19920;-70
2022/09/09 08:22:17;;;;;;;;;;;20.10;71.40;;;;;;5122928;27;19938;-70
2022/09/09 08:24:44;;;;;;;;;;;20.10;71.50;;;;;;5125788;27;20440;-71
2022/09/09 08:27:13;;;;;;;;;;;20.00;71.60;;;;;;5123554;27;19923;-71
2022/09/09 08:29:42;;;;;;;;;;;19.90;71.60;;;;;;5119742;27;20015;-70
2022/09/09 08:32:09;;;;;;;;;;;19.80;71.40;;;;;;5124851;27;19984;-71
2022/09/09 08:34:42;;;;;;;;;;;19.80;71.30;;;;;;5125633;27;19927;-71
2022/09/09 08:37:16;;;;;;;;;;;19.80;71.50;;;;;;5127049;27;20008;-71
2022/09/09 08:39:44;;;;;;;;;;;19.70;71.80;;;;;;5124634;27;20022;-70
2022/09/09 08:42:23;;;;;;;;;;;19.80;71.60;;;;;;5119952;27;19927;-71
2022/09/09 08:45:00;;;;;;;;;;;19.80;71.70;;;;;;5114432;28;19969;-71
2022/09/09 08:47:32;;;;;;;;;;;19.80;71.70;;;;;;5118000;27;19926;-70
2022/09/09 08:50:04;;;;;;;;;;;19.90;71.50;;;;;;5126158;28;20365;-71
2022/09/09 08:52:38;;;;;;;;;;;19.90;71.30;;;;;;5117838;27;20369;-70
2022/09/09 08:55:16;;;;;;;;;;;19.90;71.20;;;;;;5122101;27;20384;-71
2022/09/09 08:57:44;;;;;;;;;;;19.90;71.30;;;;;;5128439;27;19962;-70
2022/09/09 09:00:17;;;;;;;;;;;19.80;71.60;;;;;;5121933;28;20322;-70
2022/09/09 09:02:49;;;;;;;;;;;19.80;71.70;;;;;;5134991;27;19919;-70
2022/09/09 09:05:21;;;;;;;;;;;19.70;71.90;;;;;;5126955;27;19919;-72
2022/09/09 09:07:56;;;;;;;;;;;19.70;72.00;;;;;;5121149;27;19926;-71
2022/09/09 09:10:36;;;;;;;;;;;19.70;72.10;;;;;;5125642;28;20369;-70
2022/09/09 09:13:09;;;;;;;;;;;19.80;72.00;;;;;;5127257;27;20375;-70
2022/09/09 09:15:38;;;;;;;;;;;19.80;72.10;;;;;;5119804;27;20392;-70
2022/09/09 09:18:07;;;;;;;;;;;19.90;72.00;;;;;;5121303;27;20016;-71
2022/09/09 09:20:41;;;;;;;;;;;20.00;71.90;;;;;;5124841;27;20369;-71
2022/09/09 09:23:16;;;;;;;;;;;20.10;71.80;;;;;;5116343;27;19920;-72
2022/09/09 09:25:44;;;;;;;;;;;20.10;71.90;;;;;;5119364;27;19970;-71
2022/09/09 09:28:17;;;;;;;;;;;20.00;71.80;;;;;;5119612;27;20003;-71
2022/09/09 09:30:52;;;;;;;;;;;20.20;71.60;;;;;;5127931;27;21522;-71
2022/09/09 09:33:23;;;;;;;;;;;20.30;71.40;;;;;;5133902;27;19958;-71
2022/09/09 09:35:51;;;;;;;;;;;20.40;71.00;;;;;;5122442;27;19919;-71
2022/09/09 09:38:23;;;;;;;;;;;20.30;70.60;;;;;;5121122;27;20369;-71
2022/09/09 09:40:57;;;;;;;;;;;20.30;70.10;;;;;;5127470;27;20365;-71
2022/09/09 09:43:27;;;;;;;;;;;20.20;70.30;;;;;;5126151;27;20101;-71
2022/09/09 09:45:57;;;;;;;;;;;20.20;70.20;;;;;;5121510;27;19919;-71
2022/09/09 09:48:26;;;;;;;;;;;20.10;70.40;;;;;;5125386;27;20223;-73
2022/09/09 09:50:54;;;;;;;;;;;20.10;70.40;;;;;;5131705;27;19945;-71
2022/09/09 09:53:27;;;;;;;;;;;20.10;70.40;;;;;;5130624;27;20380;-71
2022/09/09 09:55:59;;;;;;;;;;;20.10;70.60;;;;;;5123898;27;20279;-71
2022/09/09 09:58:27;;;;;;;;;;;20.10;70.40;;;;;;5129350;27;20392;-71
2022/09/09 10:00:55;;;;;;;;;;;20.00;70.50;;;;;;5126032;27;19987;-71
2022/09/09 10:03:27;;;;;;;;;;;20.10;70.30;;;;;;5120730;27;20365;-72
2022/09/09 10:05:56;;;;;;;;;;;20.10;70.20;;;;;;5122478;27;20357;-71
2022/09/09 10:08:27;;;;;;;;;;;20.10;70.20;;;;;;5124356;27;19988;-71
2022/09/09 10:11:03;;;;;;;;;;;20.10;70.10;;;;;;5125504;27;19923;-71
2022/09/09 10:13:36;;;;;;;;;;;20.10;69.70;;;;;;5128194;27;19933;-71
2022/09/09 10:16:15;;;;;;;;;;;20.20;69.60;;;;;;5123243;27;19927;-71
2022/09/09 10:18:47;;;;;;;;;;;20.30;69.50;;;;;;5127153;27;19919;-71
2022/09/09 10:21:22;;;;;;;;;;;20.30;69.30;;;;;;5122286;27;19979;-71
2022/09/09 10:23:57;;;;;;;;;;;20.40;69.20;;;;;;5125863;27;20452;-71
2022/09/09 10:26:33;;;;;;;;;;;20.50;69.20;;;;;;5126812;27;19924;-71
2022/09/09 10:29:08;;;;;;;;;;;20.60;69.20;;;;;;5132206;27;19919;-71
2022/09/09 10:31:40;;;;;;;;;;;20.60;69.30;;;;;;5128595;27;20372;-71
2022/09/09 10:34:13;;;;;;;;;;;20.60;69.20;;;;;;5128710;27;19923;-71
2022/09/09 10:36:45;;;;;;;;;;;20.60;69.00;;;;;;5128826;27;19927;-72
2022/09/09 10:39:18;;;;;;;;;;;20.60;68.80;;;;;;5127973;27;19920;-72
2022/09/09 10:41:50;;;;;;;;;;;20.80;68.70;;;;;;5126201;27;20295;-71
2022/09/09 10:44:38;;;;;;;;;;;20.80;68.50;;;;;;5125111;27;19919;-72
2022/09/09 10:47:26;;;;;;;;;;;20.90;68.10;;;;;;5117031;27;19966;-71
2022/09/09 10:50:03;;;;;;;;;;;21.10;67.60;;;;;;5120573;27;19935;-72
2022/09/09 10:52:36;;;;;;;;;;;21.30;66.30;;;;;;5120343;27;19919;-72
2022/09/09 10:55:07;;;;;;;;;;;21.40;63.00;;;;;;5126054;27;19923;-72
2022/09/09 10:57:37;;;;;;;;;;;21.50;61.70;;;;;;5136293;27;19930;-72
2022/09/09 11:00:05;;;;;;;;;;;21.60;61.10;;;;;;5119098;27;20297;-71
2022/09/09 11:02:35;;;;;;;;;;;21.60;60.80;;;;;;5128251;27;19927;-72
2022/09/09 11:05:07;;;;;;;;;;;21.70;60.30;;;;;;5130238;27;20393;-70
2022/09/09 11:07:36;;;;;;;;;;;21.90;60.40;;;;;;5122098;27;19958;-70
2022/09/09 11:10:06;;;;;;;;;;;21.80;59.50;;;;;;5120945;27;20421;-70
2022/09/09 11:12:37;;;;;;;;;;;21.80;59.50;;;;;;5121806;27;19932;-71
2022/09/09 11:15:08;;;;;;;;;;;21.80;59.40;;;;;;5126021;27;19920;-71
2022/09/09 11:17:41;;;;;;;;;;;21.90;59.60;;;;;;5118288;27;20405;-70
2022/09/09 11:20:14;;;;;;;;;;;22.00;59.40;;;;;;5120874;27;20632;-72
2022/09/09 11:22:47;;;;;;;;;;;22.10;59.20;;;;;;5124303;27;19919;-71
2022/09/09 11:25:16;;;;;;;;;;;22.30;58.80;;;;;;5123856;27;19919;-71
2022/09/09 11:27:50;;;;;;;;;;;22.50;58.50;;;;;;5125988;27;19931;-71
2022/09/09 11:30:20;;;;;;;;;;;22.60;58.40;;;;;;5128065;27;20364;-71
2022/09/09 11:33:05;;;;;;;;;;;22.60;58.10;;;;;;5129906;27;19949;-70
2022/09/09 11:35:40;;;;;;;;;;;22.70;58.20;;;;;;5124968;27;19919;-71
2022/09/09 11:38:17;;;;;;;;;;;22.60;57.90;;;;;;5118912;27;19926;-69
2022/09/09 11:40:44;;;;;;;;;;;22.80;57.80;;;;;;5126237;27;19923;-70
2022/09/09 11:43:14;;;;;;;;;;;22.90;57.40;;;;;;5109039;27;20376;-70
2022/09/09 11:45:42;;;;;;;;;;;22.90;57.30;;;;;;5120796;27;20335;-69
2022/09/09 11:48:25;;;;;;;;;;;22.80;57.10;;;;;;5123976;27;20384;-70
2022/09/09 11:51:04;;;;;;;;;;;22.80;57.20;;;;;;5123005;27;19985;-70
2022/09/09 11:53:32;;;;;;;;;;;22.90;56.70;;;;;;5123716;27;20137;-71
2022/09/09 11:56:06;;;;;;;;;;;22.80;56.90;;;;;;5125814;27;20011;-70
2022/09/09 11:58:43;;;;;;;;;;;22.60;56.90;;;;;;5125736;27;19926;-70
2022/09/09 12:01:29;;;;;;;;;;;22.60;57.30;;;;;;5121625;27;19927;-71
2022/09/09 12:04:10;;;;;;;;;;;22.60;57.50;;;;;;5124979;27;20083;-71
2022/09/09 12:06:45;;;;;;;;;;;22.50;57.60;;;;;;5127772;27;20010;-70
2022/09/09 12:09:19;;;;;;;;;;;22.50;57.70;;;;;;5127628;27;20006;-71
2022/09/09 12:11:46;;;;;;;;;;;22.70;57.60;;;;;;5113290;27;20002;-71
2022/09/09 12:14:21;;;;;;;;;;;22.90;57.20;;;;;;5127750;27;19926;-71
2022/09/09 12:16:52;;;;;;;;;;;23.00;57.00;;;;;;5117769;27;19920;-70
2022/09/09 12:19:21;;;;;;;;;;;23.20;56.60;;;;;;5122217;27;19919;-71
2022/09/09 12:21:55;;;;;;;;;;;23.30;55.90;;;;;;5125312;27;19946;-70
2022/09/09 12:24:26;;;;;;;;;;;23.30;56.10;;;;;;5117429;27;20327;-70
2022/09/09 12:26:57;;;;;;;;;;;23.40;55.20;;;;;;5126746;27;19924;-71
2022/09/09 12:29:27;;;;;;;;;;;23.30;54.80;;;;;;5125631;27;20382;-71
2022/09/09 12:31:58;;;;;;;;;;;23.10;56.30;;;;;;5125971;27;20322;-73
2022/09/09 12:34:31;;;;;;;;;;;22.80;56.00;;;;;;5126755;27;19927;-70
2022/09/09 12:37:09;;;;;;;;;;;22.70;55.60;;;;;;5127029;27;19919;-70
2022/09/09 12:39:40;;;;;;;;;;;22.80;56.00;;;;;;5125395;27;19947;-71
2022/09/09 12:42:18;;;;;;;;;;;22.80;53.80;;;;;;5127784;27;19923;-72
2022/09/09 12:44:55;;;;;;;;;;;22.70;53.50;;;;;;5130094;27;19921;-72
2022/09/09 12:47:26;;;;;;;;;;;22.70;54.10;;;;;;5127534;27;19926;-71
2022/09/09 12:49:56;;;;;;;;;;;22.60;54.10;;;;;;5125511;27;19974;-72
2022/09/09 12:52:32;;;;;;;;;;;22.60;54.50;;;;;;5133496;27;20400;-72
2022/09/09 12:55:00;;;;;;;;;;;22.70;54.00;;;;;;5128221;27;20368;-73
2022/09/09 12:57:30;;;;;;;;;;;22.60;53.90;;;;;;5128349;27;20008;-72
2022/09/09 13:00:15;;;;;;;;;;;22.60;54.10;;;;;;5128532;27;19923;-72
2022/09/09 13:02:51;;;;;;;;;;;22.60;54.30;;;;;;5130023;27;19927;-70
2022/09/09 13:05:22;;;;;;;;;;;22.60;54.50;;;;;;5125096;27;19926;-71
2022/09/09 13:08:02;;;;;;;;;;;22.70;54.20;;;;;;5125123;27;20876;-70
2022/09/09 13:10:33;;;;;;;;;;;22.60;53.90;;;;;;5122444;27;19919;-73
2022/09/09 13:13:04;;;;;;;;;;;22.60;54.00;;;;;;5132226;27;19990;-71
2022/09/09 13:15:31;;;;;;;;;;;22.60;54.20;;;;;;5127053;27;19920;-70
2022/09/09 13:18:00;;;;;;;;;;;22.60;53.90;;;;;;5130398;27;19945;-70
2022/09/09 13:20:28;;;;;;;;;;;22.60;53.90;;;;;;5128090;27;19926;-71
2022/09/09 13:22:57;;;;;;;;;;;22.50;54.00;;;;;;5129423;27;20002;-71
2022/09/09 13:25:27;;;;;;;;;;;22.50;54.20;;;;;;5136682;27;19923;-70
2022/09/09 13:27:58;;;;;;;;;;;22.50;54.70;;;;;;5133637;27;19965;-71
2022/09/09 13:30:27;;;;;;;;;;;22.50;54.60;;;;;;5130792;27;20355;-72
2022/09/09 13:33:02;;;;;;;;;;;22.60;54.30;;;;;;5124795;27;19935;-71
2022/09/09 13:35:29;;;;;;;;;;;22.60;54.60;;;;;;5125300;27;20438;-72
2022/09/09 13:37:58;;;;;;;;;;;22.60;54.80;;;;;;5131354;27;19967;-73
2022/09/09 13:40:25;;;;;;;;;;;22.60;55.20;;;;;;5127403;27;19923;-71
2022/09/09 13:42:53;;;;;;;;;;;22.60;55.30;;;;;;5127530;27;19919;-71
2022/09/09 13:45:21;;;;;;;;;;;22.60;55.40;;;;;;5127386;27;19919;-72
2022/09/09 13:47:52;;;;;;;;;;;22.60;55.70;;;;;;5125223;27;19931;-72
2022/09/09 13:50:21;;;;;;;;;;;22.50;56.10;;;;;;5121641;27;19973;-72
2022/09/09 13:52:48;;;;;;;;;;;22.30;56.80;;;;;;5124691;27;20059;-70
2022/09/09 13:55:21;;;;;;;;;;;22.20;57.00;;;;;;5124692;27;19934;-71
2022/09/09 13:57:51;;;;;;;;;;;22.20;57.60;;;;;;5118240;27;19923;-71
2022/09/09 14:00:18;;;;;;;;;;;22.10;57.90;;;;;;5120921;27;19919;-71
2022/09/09 14:02:46;;;;;;;;;;;22.10;58.50;;;;;;5118734;27;19923;-71
2022/09/09 14:05:20;;;;;;;;;;;21.90;59.30;;;;;;5120777;27;19920;-72
2022/09/09 14:07:47;;;;;;;;;;;21.70;60.00;;;;;;5119852;27;19927;-72
2022/09/09 14:10:14;;;;;;;;;;;21.60;61.30;;;;;;5129865;27;19918;-71
2022/09/09 14:12:42;;;;;;;;;;;21.50;63.20;;;;;;5120681;27;19931;-72
2022/09/09 14:15:14;;;;;;;;;;;21.30;64.10;;;;;;5129242;27;20282;-73
2022/09/09 14:17:41;;;;;;;;;;;21.10;65.00;;;;;;5126018;27;20026;-72
2022/09/09 14:20:11;;;;;;;;;;;21.00;65.60;;;;;;5127983;27;19972;-73
2022/09/09 14:22:40;;;;;;;;;;;20.90;66.50;;;;;;5130688;27;19952;-71
2022/09/09 14:25:08;;;;;;;;;;;20.90;67.10;;;;;;5123632;27;19927;-71
2022/09/09 14:27:36;;;;;;;;;;;21.00;67.60;;;;;;5124276;27;20430;-72
2022/09/09 14:30:05;;;;;;;;;;;20.90;68.10;;;;;;5119341;27;19923;-72
2022/09/09 14:32:32;;;;;;;;;;;21.00;68.70;;;;;;5125556;27;20365;-72
2022/09/09 14:34:59;;;;;;;;;;;21.10;68.80;;;;;;5120882;27;19931;-72
2022/09/09 14:37:27;;;;;;;;;;;21.10;69.00;;;;;;5125300;27;19923;-71
2022/09/09 14:39:55;;;;;;;;;;;21.20;68.70;;;;;;5129524;27;20091;-71